sensor_id;sensor_type;location;lat;lon;timestamp;temperature;humidity
11489;DHT22;5801;50.804;12.638;2023-03-16T00:03:04;-2.60;99.90
11489;DHT22;5801;50.804;12.638;2023-03-16T00:10:22;-2.70;1.00
11489;DHT22;5801;50.804;12.638;2023-03-16T00:17:43;-2.80;1.00
11489;DHT22;5801;50.804;12.638;2023-03-16T00:20:14;-2.80;99.90
11489;DHT22;5801;50.804;12.638;2023-03-16T00:22:39;-3.00;1.00
11489;DHT22;5801;50.804;12.638;2023-03-16T00:32:29;-2.20;99.90
11489;DHT22;5801;50.804;12.638;2023-03-16T00:37:23;-3.00;74.50
11489;DHT22;5801;50.804;12.638;2023-03-16T00:44:42;-3.00;1.00
11489;DHT22;5801;50.804;12.638;2023-03-16T00:47:08;-2.80;1.00
11489;DHT22;5801;50.804;12.638;2023-03-16T00:52:06;-3.40;99.90
11489;DHT22;5801;50.804;12.638;2023-03-16T00:54:32;-3.20;1.00
11489;DHT22;5801;50.804;12.638;2023-03-16T00:56:58;-2.70;99.90
11489;DHT22;5801;50.804;12.638;2023-03-16T00:59:24;-3.20;1.00
11489;DHT22;5801;50.804;12.638;2023-03-16T01:06:43;-3.20;1.00
11489;DHT22;5801;50.804;12.638;2023-03-16T01:14:01;-2.80;1.00
11489;DHT22;5801;50.804;12.638;2023-03-16T01:16:28;-2.70;99.90
11489;DHT22;5801;50.804;12.638;2023-03-16T01:21:20;-3.10;1.00
11489;DHT22;5801;50.804;12.638;2023-03-16T01:23:46;-3.00;1.00
11489;DHT22;5801;50.804;12.638;2023-03-16T01:26:12;-3.10;1.00
11489;DHT22;5801;50.804;12.638;2023-03-16T01:28:39;-3.40;99.90
11489;DHT22;5801;50.804;12.638;2023-03-16T01:31:08;-3.10;99.90
11489;DHT22;5801;50.804;12.638;2023-03-16T01:33:34;-3.10;1.00
11489;DHT22;5801;50.804;12.638;2023-03-16T01:36:03;-3.10;99.90
11489;DHT22;5801;50.804;12.638;2023-03-16T01:43:23;-3.30;99.90
11489;DHT22;5801;50.804;12.638;2023-03-16T01:48:43;-3.20;1.00
11489;DHT22;5801;50.804;12.638;2023-03-16T01:51:14;-3.70;55.10
11489;DHT22;5801;50.804;12.638;2023-03-16T01:53:40;-3.80;65.70
11489;DHT22;5801;50.804;12.638;2023-03-16T01:56:10;-3.40;99.90
11489;DHT22;5801;50.804;12.638;2023-03-16T01:58:37;-3.40;55.30
11489;DHT22;5801;50.804;12.638;2023-03-16T02:01:04;-3.50;1.00
11489;DHT22;5801;50.804;12.638;2023-03-16T02:03:30;-3.40;99.90
11489;DHT22;5801;50.804;12.638;2023-03-16T02:08:26;-3.40;99.90
11489;DHT22;5801;50.804;12.638;2023-03-16T02:10:53;-3.40;99.90
11489;DHT22;5801;50.804;12.638;2023-03-16T02:13:21;-3.60;99.90
11489;DHT22;5801;50.804;12.638;2023-03-16T02:21:04;-3.40;99.90
11489;DHT22;5801;50.804;12.638;2023-03-16T02:23:31;-3.50;1.00
11489;DHT22;5801;50.804;12.638;2023-03-16T02:28:34;-3.40;99.90
11489;DHT22;5801;50.804;12.638;2023-03-16T02:31:03;-3.60;1.00
11489;DHT22;5801;50.804;12.638;2023-03-16T02:38:22;-3.60;1.00
11489;DHT22;5801;50.804;12.638;2023-03-16T02:41:16;-3.40;1.00
11489;DHT22;5801;50.804;12.638;2023-03-16T02:43:45;-3.50;99.90
11489;DHT22;5801;50.804;12.638;2023-03-16T02:46:12;-5.20;99.90
11489;DHT22;5801;50.804;12.638;2023-03-16T02:48:49;-3.50;1.00
11489;DHT22;5801;50.804;12.638;2023-03-16T02:56:09;-3.60;99.90
11489;DHT22;5801;50.804;12.638;2023-03-16T03:01:01;-3.60;99.90
11489;DHT22;5801;50.804;12.638;2023-03-16T03:08:18;-3.80;99.90
11489;DHT22;5801;50.804;12.638;2023-03-16T03:18:04;-3.80;1.00
11489;DHT22;5801;50.804;12.638;2023-03-16T03:20:30;-3.70;1.00
11489;DHT22;5801;50.804;12.638;2023-03-16T03:22:56;-3.70;99.90
11489;DHT22;5801;50.804;12.638;2023-03-16T03:27:49;-3.50;1.00
11489;DHT22;5801;50.804;12.638;2023-03-16T03:30:20;-3.50;1.00
11489;DHT22;5801;50.804;12.638;2023-03-16T03:32:45;-3.60;1.00
11489;DHT22;5801;50.804;12.638;2023-03-16T03:35:13;-3.40;1.00
11489;DHT22;5801;50.804;12.638;2023-03-16T03:37:42;-4.00;99.90
11489;DHT22;5801;50.804;12.638;2023-03-16T03:40:13;-3.60;23.70
11489;DHT22;5801;50.804;12.638;2023-03-16T03:42:39;-4.60;28.40
11489;DHT22;5801;50.804;12.638;2023-03-16T03:45:05;-3.40;99.90
11489;DHT22;5801;50.804;12.638;2023-03-16T03:49:58;-3.60;1.00
11489;DHT22;5801;50.804;12.638;2023-03-16T04:02:11;-3.50;99.90
11489;DHT22;5801;50.804;12.638;2023-03-16T04:04:38;-3.30;99.90
11489;DHT22;5801;50.804;12.638;2023-03-16T04:07:03;-3.90;99.90
11489;DHT22;5801;50.804;12.638;2023-03-16T04:12:00;-3.90;99.90
11489;DHT22;5801;50.804;12.638;2023-03-16T04:14:26;-3.80;63.50
11489;DHT22;5801;50.804;12.638;2023-03-16T04:16:52;-3.80;99.90
11489;DHT22;5801;50.804;12.638;2023-03-16T04:26:42;-4.20;1.00
11489;DHT22;5801;50.804;12.638;2023-03-16T04:31:38;-4.00;99.90
11489;DHT22;5801;50.804;12.638;2023-03-16T04:36:30;-3.70;1.00
11489;DHT22;5801;50.804;12.638;2023-03-16T04:38:57;-3.50;1.00
11489;DHT22;5801;50.804;12.638;2023-03-16T04:43:48;-3.80;99.90
11489;DHT22;5801;50.804;12.638;2023-03-16T04:51:06;-3.60;14.20
11489;DHT22;5801;50.804;12.638;2023-03-16T04:55:58;-4.00;1.00
11489;DHT22;5801;50.804;12.638;2023-03-16T05:00:54;-3.90;1.00
11489;DHT22;5801;50.804;12.638;2023-03-16T05:05:46;-3.80;99.90
11489;DHT22;5801;50.804;12.638;2023-03-16T05:10:38;-3.70;1.00
11489;DHT22;5801;50.804;12.638;2023-03-16T05:15:30;-3.60;99.90
11489;DHT22;5801;50.804;12.638;2023-03-16T05:27:42;-3.70;99.90
11489;DHT22;5801;50.804;12.638;2023-03-16T05:30:10;-4.10;99.90
11489;DHT22;5801;50.804;12.638;2023-03-16T05:32:36;-3.60;1.00
11489;DHT22;5801;50.804;12.638;2023-03-16T05:39:53;-3.80;1.00
11489;DHT22;5801;50.804;12.638;2023-03-16T05:59:23;-3.40;1.00
11489;DHT22;5801;50.804;12.638;2023-03-16T06:01:49;-3.10;43.00
11489;DHT22;5801;50.804;12.638;2023-03-16T06:04:14;-3.00;99.90
11489;DHT22;5801;50.804;12.638;2023-03-16T06:06:40;-2.90;99.90
11489;DHT22;5801;50.804;12.638;2023-03-16T06:11:33;-2.20;46.10
11489;DHT22;5801;50.804;12.638;2023-03-16T06:13:59;-2.20;1.00
11489;DHT22;5801;50.804;12.638;2023-03-16T06:21:17;-1.50;1.00
11489;DHT22;5801;50.804;12.638;2023-03-16T06:23:42;-1.10;1.00
11489;DHT22;5801;50.804;12.638;2023-03-16T06:26:08;-0.50;1.00
11489;DHT22;5801;50.804;12.638;2023-03-16T06:30:59;0.80;1.00
11489;DHT22;5801;50.804;12.638;2023-03-16T06:33:25;0.70;1.00
11489;DHT22;5801;50.804;12.638;2023-03-16T06:35:51;1.20;1.00
11489;DHT22;5801;50.804;12.638;2023-03-16T06:38:17;1.50;99.90
11489;DHT22;5801;50.804;12.638;2023-03-16T06:43:09;2.20;99.90
11489;DHT22;5801;50.804;12.638;2023-03-16T06:50:26;3.10;99.90
11489;DHT22;5801;50.804;12.638;2023-03-16T06:57:44;3.40;99.90
11489;DHT22;5801;50.804;12.638;2023-03-16T07:00:12;4.10;99.90
11489;DHT22;5801;50.804;12.638;2023-03-16T07:05:06;5.60;99.90
11489;DHT22;5801;50.804;12.638;2023-03-16T07:07:32;6.50;1.00
11489;DHT22;5801;50.804;12.638;2023-03-16T07:09:58;7.10;1.00
11489;DHT22;5801;50.804;12.638;2023-03-16T07:17:16;7.30;1.00
11489;DHT22;5801;50.804;12.638;2023-03-16T07:19:41;7.50;1.00
11489;DHT22;5801;50.804;12.638;2023-03-16T07:22:08;7.30;99.90
11489;DHT22;5801;50.804;12.638;2023-03-16T07:24:33;8.50;1.00
11489;DHT22;5801;50.804;12.638;2023-03-16T07:31:52;8.00;1.00
11489;DHT22;5801;50.804;12.638;2023-03-16T07:34:18;8.40;1.00
11489;DHT22;5801;50.804;12.638;2023-03-16T07:39:13;8.00;1.00
11489;DHT22;5801;50.804;12.638;2023-03-16T07:46:30;7.80;1.00
11489;DHT22;5801;50.804;12.638;2023-03-16T07:58:41;6.20;1.00
11489;DHT22;5801;50.804;12.638;2023-03-16T08:10:51;6.90;99.90
11489;DHT22;5801;50.804;12.638;2023-03-16T08:13:17;7.10;99.90
11489;DHT22;5801;50.804;12.638;2023-03-16T08:15:51;7.30;99.90
11489;DHT22;5801;50.804;12.638;2023-03-16T08:23:15;7.90;1.00
11489;DHT22;5801;50.804;12.638;2023-03-16T08:28:06;7.30;1.00
11489;DHT22;5801;50.804;12.638;2023-03-16T08:30:33;7.70;1.00
11489;DHT22;5801;50.804;12.638;2023-03-16T08:35:27;8.70;1.00
11489;DHT22;5801;50.804;12.638;2023-03-16T08:42:47;8.90;99.90
11489;DHT22;5801;50.804;12.638;2023-03-16T08:45:15;8.40;1.00
11489;DHT22;5801;50.804;12.638;2023-03-16T08:47:42;8.80;1.00
11489;DHT22;5801;50.804;12.638;2023-03-16T08:50:08;9.20;1.00
11489;DHT22;5801;50.804;12.638;2023-03-16T08:52:34;9.90;99.90
11489;DHT22;5801;50.804;12.638;2023-03-16T08:55:04;10.30;99.90
11489;DHT22;5801;50.804;12.638;2023-03-16T08:57:31;10.80;1.00
11489;DHT22;5801;50.804;12.638;2023-03-16T08:59:58;11.30;99.90
11489;DHT22;5801;50.804;12.638;2023-03-16T09:07:17;10.70;1.00
11489;DHT22;5801;50.804;12.638;2023-03-16T09:12:10;10.80;1.00
11489;DHT22;5801;50.804;12.638;2023-03-16T09:14:37;11.40;1.00
11489;DHT22;5801;50.804;12.638;2023-03-16T09:19:29;10.50;1.00
11489;DHT22;5801;50.804;12.638;2023-03-16T09:29:14;10.20;1.00
11489;DHT22;5801;50.804;12.638;2023-03-16T09:41:41;12.10;1.00
11489;DHT22;5801;50.804;12.638;2023-03-16T09:46:44;10.90;99.90
11489;DHT22;5801;50.804;12.638;2023-03-16T09:49:15;10.10;99.90
11489;DHT22;5801;50.804;12.638;2023-03-16T09:51:55;10.50;99.90
11489;DHT22;5801;50.804;12.638;2023-03-16T09:54:48;11.00;99.90
11489;DHT22;5801;50.804;12.638;2023-03-16T09:57:27;11.30;99.90
11489;DHT22;5801;50.804;12.638;2023-03-16T09:59:57;12.70;1.00
11489;DHT22;5801;50.804;12.638;2023-03-16T10:02:43;12.80;99.90
11489;DHT22;5801;50.804;12.638;2023-03-16T10:10:44;14.30;99.90
11489;DHT22;5801;50.804;12.638;2023-03-16T10:13:29;13.90;99.90
11489;DHT22;5801;50.804;12.638;2023-03-16T10:16:02;14.10;99.90
11489;DHT22;5801;50.804;12.638;2023-03-16T10:18:37;14.40;99.90
11489;DHT22;5801;50.804;12.638;2023-03-16T10:21:04;14.20;99.90
11489;DHT22;5801;50.804;12.638;2023-03-16T10:26:04;14.40;99.90
11489;DHT22;5801;50.804;12.638;2023-03-16T10:31:04;14.30;1.00
11489;DHT22;5801;50.804;12.638;2023-03-16T10:33:33;14.00;99.90
11489;DHT22;5801;50.804;12.638;2023-03-16T10:46:00;15.30;99.90
11489;DHT22;5801;50.804;12.638;2023-03-16T10:48:26;15.10;99.90
11489;DHT22;5801;50.804;12.638;2023-03-16T10:50:56;14.90;99.90
11489;DHT22;5801;50.804;12.638;2023-03-16T10:53:26;15.30;99.90
11489;DHT22;5801;50.804;12.638;2023-03-16T10:55:57;14.20;99.90
11489;DHT22;5801;50.804;12.638;2023-03-16T10:58:25;13.70;99.90
11489;DHT22;5801;50.804;12.638;2023-03-16T11:03:23;15.00;99.90
11489;DHT22;5801;50.804;12.638;2023-03-16T11:05:58;15.60;99.90
11489;DHT22;5801;50.804;12.638;2023-03-16T11:08:25;15.50;99.90
11489;DHT22;5801;50.804;12.638;2023-03-16T11:10:59;15.50;99.90
11489;DHT22;5801;50.804;12.638;2023-03-16T11:13:35;14.10;99.90
11489;DHT22;5801;50.804;12.638;2023-03-16T11:16:25;12.10;99.90
11489;DHT22;5801;50.804;12.638;2023-03-16T11:19:01;11.00;99.90
11489;DHT22;5801;50.804;12.638;2023-03-16T11:21:49;10.50;99.90
11489;DHT22;5801;50.804;12.638;2023-03-16T11:24:25;10.40;99.90
11489;DHT22;5801;50.804;12.638;2023-03-16T11:26:56;10.80;99.90
11489;DHT22;5801;50.804;12.638;2023-03-16T11:29:24;11.20;1.00
11489;DHT22;5801;50.804;12.638;2023-03-16T11:32:05;11.10;99.90
11489;DHT22;5801;50.804;12.638;2023-03-16T11:34:32;10.70;99.90
11489;DHT22;5801;50.804;12.638;2023-03-16T11:43:00;10.70;1.00
11489;DHT22;5801;50.804;12.638;2023-03-16T11:48:35;11.70;99.90
11489;DHT22;5801;50.804;12.638;2023-03-16T11:51:14;10.90;1.00
11489;DHT22;5801;50.804;12.638;2023-03-16T11:56:53;13.00;99.90
11489;DHT22;5801;50.804;12.638;2023-03-16T12:09:33;11.50;1.00
11489;DHT22;5801;50.804;12.638;2023-03-16T12:12:28;11.50;99.90
11489;DHT22;5801;50.804;12.638;2023-03-16T12:17:55;11.60;99.90
11489;DHT22;5801;50.804;12.638;2023-03-16T12:20:26;11.40;99.90
11489;DHT22;5801;50.804;12.638;2023-03-16T12:22:58;11.00;99.90
11489;DHT22;5801;50.804;12.638;2023-03-16T12:25:31;9.60;99.90
11489;DHT22;5801;50.804;12.638;2023-03-16T12:28:01;9.20;99.90
11489;DHT22;5801;50.804;12.638;2023-03-16T12:30:57;8.70;99.90
11489;DHT22;5801;50.804;12.638;2023-03-16T12:33:47;7.90;99.90
11489;DHT22;5801;50.804;12.638;2023-03-16T12:39:22;7.40;99.90
11489;DHT22;5801;50.804;12.638;2023-03-16T12:44:49;6.80;1.00
11489;DHT22;5801;50.804;12.638;2023-03-16T12:47:32;6.90;99.90
11489;DHT22;5801;50.804;12.638;2023-03-16T12:50:08;7.20;1.00
11489;DHT22;5801;50.804;12.638;2023-03-16T12:52:43;6.70;1.00
11489;DHT22;5801;50.804;12.638;2023-03-16T12:58:01;6.70;1.00
11489;DHT22;5801;50.804;12.638;2023-03-16T13:00:39;6.60;1.00
11489;DHT22;5801;50.804;12.638;2023-03-16T13:03:12;6.60;1.00
11489;DHT22;5801;50.804;12.638;2023-03-16T13:05:44;6.70;99.90
11489;DHT22;5801;50.804;12.638;2023-03-16T13:08:15;6.70;99.90
11489;DHT22;5801;50.804;12.638;2023-03-16T13:10:42;6.70;99.90
11489;DHT22;5801;50.804;12.638;2023-03-16T13:16:06;6.70;99.90
11489;DHT22;5801;50.804;12.638;2023-03-16T13:18:39;6.90;1.00
11489;DHT22;5801;50.804;12.638;2023-03-16T13:21:40;6.90;1.00
11489;DHT22;5801;50.804;12.638;2023-03-16T13:26:46;6.90;99.90
11489;DHT22;5801;50.804;12.638;2023-03-16T13:29:29;6.70;99.90
11489;DHT22;5801;50.804;12.638;2023-03-16T13:32:01;6.70;1.00
11489;DHT22;5801;50.804;12.638;2023-03-16T13:36:54;6.90;99.90
11489;DHT22;5801;50.804;12.638;2023-03-16T13:39:23;6.90;99.90
11489;DHT22;5801;50.804;12.638;2023-03-16T13:44:25;7.10;99.90
11489;DHT22;5801;50.804;12.638;2023-03-16T13:46:51;7.20;1.00
11489;DHT22;5801;50.804;12.638;2023-03-16T13:49:18;7.50;99.90
11489;DHT22;5801;50.804;12.638;2023-03-16T13:51:44;7.30;1.00
11489;DHT22;5801;50.804;12.638;2023-03-16T13:54:26;7.50;99.90
11489;DHT22;5801;50.804;12.638;2023-03-16T13:56:58;7.60;99.90
11489;DHT22;5801;50.804;12.638;2023-03-16T13:59:24;7.50;99.90
11489;DHT22;5801;50.804;12.638;2023-03-16T14:01:55;7.50;99.90
11489;DHT22;5801;50.804;12.638;2023-03-16T14:04:24;7.60;99.90
11489;DHT22;5801;50.804;12.638;2023-03-16T14:06:52;7.40;1.00
11489;DHT22;5801;50.804;12.638;2023-03-16T14:09:21;7.50;1.00
11489;DHT22;5801;50.804;12.638;2023-03-16T14:11:47;7.30;1.00
11489;DHT22;5801;50.804;12.638;2023-03-16T14:14:24;7.30;99.90
11489;DHT22;5801;50.804;12.638;2023-03-16T14:16:51;7.30;99.90
11489;DHT22;5801;50.804;12.638;2023-03-16T14:19:23;7.30;1.00
11489;DHT22;5801;50.804;12.638;2023-03-16T14:22:00;7.40;99.90
11489;DHT22;5801;50.804;12.638;2023-03-16T14:24:31;7.40;1.00
11489;DHT22;5801;50.804;12.638;2023-03-16T14:29:42;7.50;1.00
11489;DHT22;5801;50.804;12.638;2023-03-16T14:32:26;7.50;1.00
11489;DHT22;5801;50.804;12.638;2023-03-16T14:34:59;7.70;99.90
11489;DHT22;5801;50.804;12.638;2023-03-16T14:37:34;7.60;1.00
11489;DHT22;5801;50.804;12.638;2023-03-16T14:40:01;7.60;1.00
11489;DHT22;5801;50.804;12.638;2023-03-16T14:42:30;7.70;1.00
11489;DHT22;5801;50.804;12.638;2023-03-16T14:44:58;7.70;1.00
11489;DHT22;5801;50.804;12.638;2023-03-16T14:47:27;7.70;1.00
11489;DHT22;5801;50.804;12.638;2023-03-16T14:49:55;7.40;1.00
11489;DHT22;5801;50.804;12.638;2023-03-16T14:52:26;7.60;99.90
11489;DHT22;5801;50.804;12.638;2023-03-16T14:54:54;7.60;1.00
11489;DHT22;5801;50.804;12.638;2023-03-16T15:02:20;7.80;1.00
11489;DHT22;5801;50.804;12.638;2023-03-16T15:04:47;7.40;1.00
11489;DHT22;5801;50.804;12.638;2023-03-16T15:07:42;7.40;99.90
11489;DHT22;5801;50.804;12.638;2023-03-16T15:10:18;7.30;99.90
11489;DHT22;5801;50.804;12.638;2023-03-16T15:12:46;7.30;1.00
11489;DHT22;5801;50.804;12.638;2023-03-16T15:15:20;7.80;10.90
11489;DHT22;5801;50.804;12.638;2023-03-16T15:17:47;7.10;20.80
11489;DHT22;5801;50.804;12.638;2023-03-16T15:20:19;7.30;99.90
11489;DHT22;5801;50.804;12.638;2023-03-16T15:22:48;6.80;45.10
11489;DHT22;5801;50.804;12.638;2023-03-16T15:27:42;6.90;99.90
11489;DHT22;5801;50.804;12.638;2023-03-16T15:30:18;7.20;1.00
11489;DHT22;5801;50.804;12.638;2023-03-16T15:35:10;7.00;1.00
11489;DHT22;5801;50.804;12.638;2023-03-16T15:37:35;7.40;1.00
11489;DHT22;5801;50.804;12.638;2023-03-16T15:40:08;7.00;63.00
11489;DHT22;5801;50.804;12.638;2023-03-16T15:42:38;6.60;1.00
11489;DHT22;5801;50.804;12.638;2023-03-16T15:45:09;7.10;99.90
11489;DHT22;5801;50.804;12.638;2023-03-16T15:50:01;7.00;1.00
11489;DHT22;5801;50.804;12.638;2023-03-16T15:52:31;6.90;92.60
11489;DHT22;5801;50.804;12.638;2023-03-16T15:59:55;6.90;56.00
11489;DHT22;5801;50.804;12.638;2023-03-16T16:02:25;6.80;99.90
11489;DHT22;5801;50.804;12.638;2023-03-16T16:04:52;6.80;1.00
11489;DHT22;5801;50.804;12.638;2023-03-16T16:09:44;6.80;41.20
11489;DHT22;5801;50.804;12.638;2023-03-16T16:12:13;6.60;99.90
11489;DHT22;5801;50.804;12.638;2023-03-16T16:14:40;6.50;20.20
11489;DHT22;5801;50.804;12.638;2023-03-16T16:17:14;6.70;1.00
11489;DHT22;5801;50.804;12.638;2023-03-16T16:19:51;6.60;19.20
11489;DHT22;5801;50.804;12.638;2023-03-16T16:24:44;6.40;1.00
11489;DHT22;5801;50.804;12.638;2023-03-16T16:27:10;6.20;99.90
11489;DHT22;5801;50.804;12.638;2023-03-16T16:32:02;6.20;3.50
11489;DHT22;5801;50.804;12.638;2023-03-16T16:34:28;6.40;12.20
11489;DHT22;5801;50.804;12.638;2023-03-16T16:36:55;6.80;99.90
11489;DHT22;5801;50.804;12.638;2023-03-16T16:41:49;6.40;14.90
11489;DHT22;5801;50.804;12.638;2023-03-16T16:44:23;6.20;6.20
11489;DHT22;5801;50.804;12.638;2023-03-16T16:46:52;6.40;99.90
11489;DHT22;5801;50.804;12.638;2023-03-16T16:49:21;6.40;99.90
11489;DHT22;5801;50.804;12.638;2023-03-16T16:51:48;6.20;6.10
11489;DHT22;5801;50.804;12.638;2023-03-16T16:54:24;6.30;99.90
11489;DHT22;5801;50.804;12.638;2023-03-16T16:56:52;6.20;1.00
11489;DHT22;5801;50.804;12.638;2023-03-16T16:59:20;6.30;20.50
11489;DHT22;5801;50.804;12.638;2023-03-16T17:01:48;6.20;99.90
11489;DHT22;5801;50.804;12.638;2023-03-16T17:04:18;6.10;99.90
11489;DHT22;5801;50.804;12.638;2023-03-16T17:06:44;6.00;39.40
11489;DHT22;5801;50.804;12.638;2023-03-16T17:09:10;5.80;47.30
11489;DHT22;5801;50.804;12.638;2023-03-16T17:11:40;5.80;99.90
11489;DHT22;5801;50.804;12.638;2023-03-16T17:16:34;5.80;99.90
11489;DHT22;5801;50.804;12.638;2023-03-16T17:19:01;5.70;77.00
11489;DHT22;5801;50.804;12.638;2023-03-16T17:21:29;4.60;99.90
11489;DHT22;5801;50.804;12.638;2023-03-16T17:23:55;5.70;96.50
11489;DHT22;5801;50.804;12.638;2023-03-16T17:26:32;5.70;99.90
11489;DHT22;5801;50.804;12.638;2023-03-16T17:29:08;5.60;99.90
11489;DHT22;5801;50.804;12.638;2023-03-16T17:31:37;5.60;99.90
11489;DHT22;5801;50.804;12.638;2023-03-16T17:34:17;5.50;99.90
11489;DHT22;5801;50.804;12.638;2023-03-16T17:39:23;5.40;99.90
11489;DHT22;5801;50.804;12.638;2023-03-16T17:41:58;5.40;99.90
11489;DHT22;5801;50.804;12.638;2023-03-16T17:44:25;5.30;1.00
11489;DHT22;5801;50.804;12.638;2023-03-16T17:59:11;5.20;99.90
11489;DHT22;5801;50.804;12.638;2023-03-16T18:04:18;4.90;99.90
11489;DHT22;5801;50.804;12.638;2023-03-16T18:14:19;4.80;1.00
11489;DHT22;5801;50.804;12.638;2023-03-16T18:19:20;4.70;1.00
11489;DHT22;5801;50.804;12.638;2023-03-16T18:34:00;4.60;99.90
11489;DHT22;5801;50.804;12.638;2023-03-16T18:36:34;3.70;99.90
11489;DHT22;5801;50.804;12.638;2023-03-16T18:39:06;4.60;78.60
11489;DHT22;5801;50.804;12.638;2023-03-16T18:44:01;4.50;54.30
11489;DHT22;5801;50.804;12.638;2023-03-16T18:46:32;4.40;99.90
11489;DHT22;5801;50.804;12.638;2023-03-16T18:49:03;4.40;1.00
11489;DHT22;5801;50.804;12.638;2023-03-16T18:56:27;4.30;1.00
11489;DHT22;5801;50.804;12.638;2023-03-16T18:58:54;4.20;99.90
11489;DHT22;5801;50.804;12.638;2023-03-16T19:01:29;4.40;35.20
11489;DHT22;5801;50.804;12.638;2023-03-16T19:03:56;4.20;1.00
11489;DHT22;5801;50.804;12.638;2023-03-16T19:06:25;4.40;99.90
11489;DHT22;5801;50.804;12.638;2023-03-16T19:13:45;4.90;1.00
11489;DHT22;5801;50.804;12.638;2023-03-16T19:16:18;4.00;99.90
11489;DHT22;5801;50.804;12.638;2023-03-16T19:18:44;4.10;25.50
11489;DHT22;5801;50.804;12.638;2023-03-16T19:21:15;4.20;1.00
11489;DHT22;5801;50.804;12.638;2023-03-16T19:23:54;4.20;99.90
11489;DHT22;5801;50.804;12.638;2023-03-16T19:31:24;4.10;99.90
11489;DHT22;5801;50.804;12.638;2023-03-16T19:38:48;4.30;1.00
11489;DHT22;5801;50.804;12.638;2023-03-16T19:41:34;4.40;91.30
11489;DHT22;5801;50.804;12.638;2023-03-16T19:44:14;4.20;99.90
11489;DHT22;5801;50.804;12.638;2023-03-16T19:46:43;4.10;51.90
11489;DHT22;5801;50.804;12.638;2023-03-16T19:49:21;4.20;1.00
11489;DHT22;5801;50.804;12.638;2023-03-16T19:51:48;4.20;1.00
11489;DHT22;5801;50.804;12.638;2023-03-16T19:54:29;4.20;1.00
11489;DHT22;5801;50.804;12.638;2023-03-16T19:57:03;4.20;99.90
11489;DHT22;5801;50.804;12.638;2023-03-16T19:59:32;4.20;99.90
11489;DHT22;5801;50.804;12.638;2023-03-16T20:04:25;4.10;99.90
11489;DHT22;5801;50.804;12.638;2023-03-16T20:06:52;4.20;99.90
11489;DHT22;5801;50.804;12.638;2023-03-16T20:11:44;4.00;99.90
11489;DHT22;5801;50.804;12.638;2023-03-16T20:14:19;4.10;11.40
11489;DHT22;5801;50.804;12.638;2023-03-16T20:16:46;4.10;1.00
11489;DHT22;5801;50.804;12.638;2023-03-16T20:19:13;4.10;99.90
11489;DHT22;5801;50.804;12.638;2023-03-16T20:24:15;4.10;99.90
11489;DHT22;5801;50.804;12.638;2023-03-16T20:26:41;4.10;99.90
11489;DHT22;5801;50.804;12.638;2023-03-16T20:29:27;4.00;99.90
11489;DHT22;5801;50.804;12.638;2023-03-16T20:31:54;4.20;1.00
11489;DHT22;5801;50.804;12.638;2023-03-16T20:34:23;4.10;99.90
11489;DHT22;5801;50.804;12.638;2023-03-16T20:36:50;3.80;99.90
11489;DHT22;5801;50.804;12.638;2023-03-16T20:39:15;4.10;99.90
11489;DHT22;5801;50.804;12.638;2023-03-16T20:41:41;4.20;99.90
11489;DHT22;5801;50.804;12.638;2023-03-16T20:44:12;4.10;99.90
11489;DHT22;5801;50.804;12.638;2023-03-16T20:46:38;4.10;1.00
11489;DHT22;5801;50.804;12.638;2023-03-16T20:51:50;4.10;1.00
11489;DHT22;5801;50.804;12.638;2023-03-16T20:54:16;4.10;99.90
11489;DHT22;5801;50.804;12.638;2023-03-16T20:59:20;4.20;1.00
11489;DHT22;5801;50.804;12.638;2023-03-16T21:04:26;4.10;1.00
11489;DHT22;5801;50.804;12.638;2023-03-16T21:06:52;4.00;99.90
11489;DHT22;5801;50.804;12.638;2023-03-16T21:09:19;4.00;99.90
11489;DHT22;5801;50.804;12.638;2023-03-16T21:11:45;4.00;99.90
11489;DHT22;5801;50.804;12.638;2023-03-16T21:14:20;4.10;99.90
11489;DHT22;5801;50.804;12.638;2023-03-16T21:16:46;3.70;99.90
11489;DHT22;5801;50.804;12.638;2023-03-16T21:19:14;3.90;1.00
11489;DHT22;5801;50.804;12.638;2023-03-16T21:29:02;3.90;99.90
11489;DHT22;5801;50.804;12.638;2023-03-16T21:31:30;3.80;81.00
11489;DHT22;5801;50.804;12.638;2023-03-16T21:33:56;4.00;99.90
11489;DHT22;5801;50.804;12.638;2023-03-16T21:36:23;3.90;1.00
11489;DHT22;5801;50.804;12.638;2023-03-16T21:38:51;3.80;42.80
11489;DHT22;5801;50.804;12.638;2023-03-16T21:46:23;4.00;99.90
11489;DHT22;5801;50.804;12.638;2023-03-16T21:48:52;4.10;99.90
11489;DHT22;5801;50.804;12.638;2023-03-16T21:51:21;4.30;12.40
11489;DHT22;5801;50.804;12.638;2023-03-16T21:53:49;4.20;99.90
11489;DHT22;5801;50.804;12.638;2023-03-16T21:56:21;4.20;99.90
11489;DHT22;5801;50.804;12.638;2023-03-16T21:58:47;4.10;99.90
11489;DHT22;5801;50.804;12.638;2023-03-16T22:01:24;4.10;1.00
11489;DHT22;5801;50.804;12.638;2023-03-16T22:03:53;4.30;54.40
11489;DHT22;5801;50.804;12.638;2023-03-16T22:06:23;4.20;1.00
11489;DHT22;5801;50.804;12.638;2023-03-16T22:08:50;4.10;99.90
11489;DHT22;5801;50.804;12.638;2023-03-16T22:11:22;4.20;99.90
11489;DHT22;5801;50.804;12.638;2023-03-16T22:16:16;4.20;1.00
11489;DHT22;5801;50.804;12.638;2023-03-16T22:18:44;4.30;99.90
11489;DHT22;5801;50.804;12.638;2023-03-16T22:26:19;4.30;99.90
11489;DHT22;5801;50.804;12.638;2023-03-16T22:31:14;4.30;1.00
11489;DHT22;5801;50.804;12.638;2023-03-16T22:33:41;4.40;1.00
11489;DHT22;5801;50.804;12.638;2023-03-16T22:36:13;4.50;1.00
11489;DHT22;5801;50.804;12.638;2023-03-16T22:38:40;4.30;99.90
11489;DHT22;5801;50.804;12.638;2023-03-16T22:41:08;4.40;80.20
11489;DHT22;5801;50.804;12.638;2023-03-16T22:43:37;4.20;99.90
11489;DHT22;5801;50.804;12.638;2023-03-16T22:46:04;4.30;1.00
11489;DHT22;5801;50.804;12.638;2023-03-16T22:50:59;4.30;1.00
11489;DHT22;5801;50.804;12.638;2023-03-16T22:55:59;4.30;99.90
11489;DHT22;5801;50.804;12.638;2023-03-16T22:58:30;4.30;1.00
11489;DHT22;5801;50.804;12.638;2023-03-16T23:00:57;4.30;59.90
11489;DHT22;5801;50.804;12.638;2023-03-16T23:08:19;4.30;1.00
11489;DHT22;5801;50.804;12.638;2023-03-16T23:10:45;4.20;99.90
11489;DHT22;5801;50.804;12.638;2023-03-16T23:13:14;3.90;1.00
11489;DHT22;5801;50.804;12.638;2023-03-16T23:15:41;4.10;1.00
11489;DHT22;5801;50.804;12.638;2023-03-16T23:18:17;4.00;1.00
11489;DHT22;5801;50.804;12.638;2023-03-16T23:20:43;3.50;1.00
11489;DHT22;5801;50.804;12.638;2023-03-16T23:30:28;4.10;1.00
11489;DHT22;5801;50.804;12.638;2023-03-16T23:32:54;4.10;99.90
11489;DHT22;5801;50.804;12.638;2023-03-16T23:35:24;4.10;45.40
11489;DHT22;5801;50.804;12.638;2023-03-16T23:37:50;3.70;99.90
11489;DHT22;5801;50.804;12.638;2023-03-16T23:40:17;3.90;1.00
11489;DHT22;5801;50.804;12.638;2023-03-16T23:42:43;4.10;99.90
11489;DHT22;5801;50.804;12.638;2023-03-16T23:45:33;3.90;1.00
11489;DHT22;5801;50.804;12.638;2023-03-16T23:48:04;4.10;99.90
11489;DHT22;5801;50.804;12.638;2023-03-16T23:50:32;4.10;99.90
11489;DHT22;5801;50.804;12.638;2023-03-16T23:55:26;4.10;99.90
11489;DHT22;5801;50.804;12.638;2023-03-16T23:57:53;4.30;99.90
